Flight Track Log - Related Links

Times and Time Zones

All times are in EDT time to prevent confusion due to time zone crossing. See the N257H flight status page for this flight to view local times or setup timezone preferences in your user account.

Time Position Orientation Groundspeed Altitude Reporting Facility
EDT Latitude Longitude Course Direction KTS MPH feet Rate Location/Type
Fri 05:02:33 PM 35.9472 -102.4125 118° Southeast 302 348 9,900  Level Albuquerque Center
Fri 05:03:35 PM 35.9161 -102.3169 112° Southeast 296 341 11,000 1,306 Climbing Albuquerque Center
Fri 05:04:37 PM 35.8725 -102.2033 115° Southeast 354 407 12,600 1,500 Climbing Albuquerque Center
Fri 05:05:39 PM 35.8183 -102.0867 120° Southeast 383 441 14,100 2,032 Climbing Albuquerque Center
Fri 05:06:41 PM 35.7492 -101.9397 120° Southeast 406 467 16,800 2,177 Climbing Albuquerque Center
Fri 05:07:00 PM 35.7639 -101.6896 118° Southeast  Level Estimated
Fri 05:07:43 PM 35.6911 -101.8169 120° Southeast 410 472 18,600  Level Albuquerque Center
Fri 05:08:45 PM 35.6308 -101.6867 120° Southeast 428 493 20,500 1,839 Climbing Albuquerque Center
Fri 05:09:47 PM 35.5678 -101.5533 120° Southeast 442 509 22,400 2,274 Climbing Albuquerque Center
Fri 05:10:49 PM 35.5050 -101.4206 120° Southeast 447 514 25,200 1,805 Climbing Albuquerque Center
Fri 05:11:50 PM 35.4419 -101.2897 121° Southeast 442 509 26,100 829 Climbing Albuquerque Center
Fri 05:12:52 PM 35.3744 -101.1469 120° Southeast 468 539 26,900 1,161 Climbing Albuquerque Center
Fri 05:13:54 PM 35.3042 -101.0025 121° Southeast 486 559 28,500 1,694 Climbing Albuquerque Center
Fri 05:14:56 PM 35.2214 -100.8303 120° Southeast 486 559 30,400 1,887 Climbing Albuquerque Center
Fri 05:15:58 PM 35.1525 -100.6875 121° Southeast 486 559 32,400 1,540 Climbing Albuquerque Center
Fri 05:16:49 PM 35.0950 -100.5717 121° Southeast 484 557 33,300 1,274 Climbing Fort Worth Center
Fri 05:17:51 PM 35.0250 -100.4308 121° Southeast 484 557 34,800 1,548 Climbing Fort Worth Center
Fri 05:18:53 PM 34.9569 -100.2903 121° Southeast 484 557 36,500 1,536 Climbing Fort Worth Center
Fri 05:19:56 PM 34.8889 -100.1547 121° Southeast 473 544 38,000 1,248 Climbing Fort Worth Center
Fri 05:20:58 PM 34.8222 -100.0186 121° Southeast 471 542 39,100 1,306 Climbing Fort Worth Center
Fri 05:22:00 PM 34.7411 -99.8558 121° Southeast 469 540 40,700 1,306 Climbing Fort Worth Center
Fri 05:23:02 PM 34.6750 -99.7225 121° Southeast 466 536 41,800 1,016 Climbing Fort Worth Center
Fri 05:24:04 PM 34.6094 -99.5942 122° Southeast 451 519 42,800 581 Climbing Fort Worth Center
Fri 05:25:06 PM 34.5428 -99.4614 121° Southeast 456 525 43,000 97 Climbing Fort Worth Center
Fri 05:26:08 PM 34.4744 -99.3272 122° Southeast 465 535 43,000  Level Fort Worth Center
Fri 05:27:10 PM 34.4031 -99.1892 122° Southeast 478 550 43,000  Level Fort Worth Center
Fri 05:28:12 PM 34.3169 -99.0186 121° Southeast 489 563 43,000  Level Fort Worth Center
Fri 05:29:14 PM 34.2433 -98.8753 122° Southeast 498 573 43,000  Level Fort Worth Center
Fri 05:30:17 PM 34.1686 -98.7308 122° Southeast 501 577 43,000  Level Fort Worth Center
Fri 05:31:19 PM 34.0881 -98.5744 122° Southeast 502 578 43,000  Level Fort Worth Center
Fri 05:32:21 PM 34.0100 -98.4247 122° Southeast 502 578 43,000  Level Fort Worth Center
Fri 05:33:23 PM 33.9344 -98.2822 123° Southeast 502 578 43,000  Level Fort Worth Center
Fri 05:34:25 PM 33.8594 -98.1381 122° Southeast 503 579 43,000  Level Fort Worth Center
Fri 05:35:27 PM 33.7861 -97.9947 122° Southeast 504 580 43,000  Level Fort Worth Center
Fri 05:36:29 PM 33.7108 -97.8539 123° Southeast 504 580 43,000  Level Fort Worth Center
Fri 05:37:31 PM 33.6350 -97.7114 123° Southeast 504 580 43,000  Level Fort Worth Center
Fri 05:38:33 PM 33.5456 -97.5408 122° Southeast 504 580 43,000  Level Fort Worth Center
Fri 05:39:35 PM 33.4708 -97.3997 122° Southeast 501 577 43,000  Level Fort Worth Center
Fri 05:40:38 PM 33.3950 -97.2572 122° Southeast 502 578 43,000  Level Fort Worth Center
Fri 05:41:40 PM 33.3189 -97.1147 123° Southeast 502 578 43,000  Level Fort Worth Center
Fri 05:42:42 PM 33.2428 -96.9719 122° Southeast 504 580 43,000  Level Fort Worth Center
Fri 05:43:44 PM 33.1658 -96.8311 123° Southeast 503 579 43,000  Level Fort Worth Center
Fri 05:44:46 PM 33.0886 -96.6894 123° Southeast 504 580 43,000  Level Fort Worth Center
Fri 05:45:48 PM 33.0122 -96.5506 123° Southeast 503 579 43,000  Level Fort Worth Center
Fri 05:46:50 PM 32.9217 -96.3833 123° Southeast 501 577 43,000  Level Fort Worth Center
Fri 05:47:52 PM 32.8458 -96.2447 123° Southeast 500 575 43,000  Level Fort Worth Center
Fri 05:48:54 PM 32.7672 -96.1064 124° Southeast 502 578 43,000  Level Fort Worth Center
Fri 05:49:56 PM 32.6906 -95.9689 123° Southeast 502 578 43,000  Level Fort Worth Center
Fri 05:50:58 PM 32.6147 -95.8308 123° Southeast 502 578 43,000  Level Fort Worth Center
Fri 05:52:00 PM 32.5378 -95.6936 124° Southeast 501 577 43,000  Level Fort Worth Center
Fri 05:53:03 PM 32.4453 -95.5292 124° Southeast 500 575 43,000  Level Fort Worth Center
Fri 05:54:05 PM 32.3678 -95.3925 124° Southeast 498 573 43,000  Level Fort Worth Center
Fri 05:55:07 PM 32.2894 -95.2553 124° Southeast 500 575 43,000  Level Fort Worth Center
Fri 05:56:09 PM 32.2047 -95.1056 124° Southeast 501 577 43,000  Level Fort Worth Center
Fri 05:57:11 PM 32.1267 -94.9689 124° Southeast 501 577 43,000  Level Fort Worth Center
Fri 05:58:13 PM 32.0503 -94.8322 123° Southeast 501 577 43,000  Level Fort Worth Center
Fri 05:59:15 PM 31.9722 -94.6961 124° Southeast 500 575 43,000  Level Fort Worth Center
Fri 06:00:17 PM 31.8936 -94.5597 124° Southeast 500 575 43,000  Level Fort Worth Center
Fri 06:01:19 PM 31.8153 -94.4214 124° Southeast 504 580 43,000 48 Level Fort Worth Center
Fri 06:02:21 PM 31.7375 -94.2878 124° Southeast 496 571 43,100 240 Climbing Fort Worth Center
Fri 06:03:24 PM 31.6444 -94.1264 124° Southeast 495 570 43,500 336 Climbing Fort Worth Center
Fri 06:04:26 PM 31.5667 -93.9950 125° Southeast 492 566 43,800 290 Climbing Fort Worth Center
Fri 06:05:28 PM 31.4886 -93.8617 124° Southeast 491 565 44,100 242 Climbing Fort Worth Center
Fri 06:06:30 PM 31.4164 -93.7425 125° Southeast 485 558 44,300 290 Climbing Fort Worth Center
Fri 06:07:32 PM 31.3253 -93.5878 125° Southeast 483 556 44,700 290 Climbing Fort Worth Center
Fri 06:08:34 PM 31.2494 -93.4617 125° Southeast 481 554 44,900 145 Climbing Fort Worth Center
Fri 06:09:36 PM 31.1742 -93.3347 125° Southeast 477 549 45,000 48 Climbing Fort Worth Center
Fri 06:10:38 PM 31.0992 -93.2081 125° Southeast 476 548 45,000  Level Fort Worth Center
Fri 06:11:40 PM 31.0239 -93.0831 125° Southeast 476 548 45,000  Level Fort Worth Center
Fri 06:12:42 PM 30.9350 -92.9314 124° Southeast 476 548 45,000  Level Fort Worth Center
Fri 06:13:45 PM 30.8589 -92.8056 125° Southeast 478 550 45,000  Level Fort Worth Center
Fri 06:14:47 PM 30.7819 -92.6786 125° Southeast 481 554 45,000  Level Fort Worth Center
Fri 06:15:49 PM 30.7056 -92.5525 125° Southeast 481 554 45,000  Level Fort Worth Center
Fri 06:17:16 PM 30.5983 -92.3433 121° Southeast 480 552 45,000  Level Houston Center
Fri 06:18:18 PM 30.5386 -92.2089 117° Southeast 474 545 45,000  Level Houston Center
Fri 06:19:21 PM 30.4772 -92.0739 118° Southeast 474 545 45,000  Level Houston Center
Fri 06:20:23 PM 30.4153 -91.9378 118° Southeast 474 545 45,000  Level Houston Center
Fri 06:21:25 PM 30.3539 -91.8019 118° Southeast 476 548 45,000 -48 Level Houston Center
Fri 06:22:27 PM 30.2775 -91.6381 118° Southeast 477 549 44,900  Descending Houston Center
Fri 06:23:29 PM 30.2156 -91.5006 118° Southeast 480 552 45,000  Climbing Houston Center
Fri 06:24:31 PM 30.1525 -91.3656 118° Southeast 479 551 44,900  Descending Houston Center
Fri 06:25:33 PM 30.0908 -91.2311 118° Southeast 479 551 45,000 48 Climbing Houston Center
Fri 06:26:36 PM 30.0289 -91.0958 118° Southeast 479 551 45,000  Level Houston Center
Fri 06:27:38 PM 29.9672 -90.9625 118° Southeast 478 550 45,000  Level Houston Center
Fri 06:28:40 PM 29.8931 -90.8039 118° Southeast 473 544 45,000  Level Houston Center
Fri 06:29:42 PM 29.8317 -90.6728 118° Southeast 473 544 45,000 -48 Level Houston Center
Fri 06:30:44 PM 29.7706 -90.5431 118° Southeast 470 541 44,900  Descending Houston Center
Fri 06:31:46 PM 29.7089 -90.4131 119° Southeast 469 540 45,000 48 Climbing Houston Center
Fri 06:32:49 PM 29.6475 -90.2847 119° Southeast 466 536 45,000  Level Houston Center
Fri 06:33:51 PM 29.5767 -90.1314 118° Southeast 459 528 45,000  Level Houston Center
Fri 06:34:53 PM 29.5275 -89.9964 113° Southeast 457 526 45,000  Level Houston Center
Fri 06:35:55 PM 29.4800 -89.8597 112° Southeast 460 529 45,000  Level Houston Center
Fri 06:36:57 PM 29.4317 -89.7244 112° Southeast 460 529 45,000  Level Houston Center
Fri 06:37:59 PM 29.3744 -89.5603 112° Southeast 462 532 45,000  Level Houston Center
Fri 06:39:01 PM 29.3264 -89.4250 112° Southeast 462 532 45,000  Level Houston Center
Fri 06:40:04 PM 29.2767 -89.2892 113° Southeast 462 532 45,000  Level Houston Center
Fri 06:41:06 PM 29.2278 -89.1519 112° Southeast 463 533 45,000  Level Houston Center
Fri 06:42:08 PM 29.1792 -89.0144 112° Southeast 466 536 45,000  Level Houston Center
Fri 06:43:10 PM 29.1283 -88.8778 113° Southeast 467 537 45,000  Level Houston Center
Fri 06:44:12 PM 29.0692 -88.7119 112° Southeast 467 537 45,000  Level Houston Center
Fri 06:45:14 PM 29.0183 -88.5772 113° Southeast 467 537 45,000  Level Houston Center
Fri 06:46:17 PM 28.9686 -88.4389 112° Southeast 467 537 45,000  Level Houston Center
Fri 06:47:19 PM 28.9178 -88.2992 113° Southeast 474 545 45,000  Level Houston Center
Fri 06:48:21 PM 28.8672 -88.1617 113° Southeast 474 545 45,000  Level Houston Center
Fri 06:49:23 PM 28.8136 -88.0189 113° Southeast 475 547 45,000  Level Houston Center
Fri 06:50:25 PM 28.7525 -87.8531 113° Southeast 475 547 45,000  Level Houston Center
Fri 06:51:27 PM 28.7008 -87.7161 113° Southeast 475 547 45,000  Level Houston Center
Fri 06:52:30 PM 28.6492 -87.5786 113° Southeast 474 545 45,000  Level Houston Center
Fri 06:53:32 PM 28.5969 -87.4400 113° Southeast 475 547 45,000  Level Houston Center
Fri 06:54:34 PM 28.5444 -87.3017 113° Southeast 476 548 45,000  Level Houston Center
Fri 06:55:36 PM 28.4806 -87.1350 114° Southeast 478 550 45,000  Level Houston Center
Fri 06:56:38 PM 28.4283 -86.9967 113° Southeast 478 550 45,000  Level Houston Center
Fri 06:57:27 PM 28.3803 -86.8794 115° Southeast 472 543 45,000  Level Jacksonville Center
Fri 06:58:28 PM 28.3303 -86.7431 113° Southeast 472 543 45,000  Level Jacksonville Center
Fri 06:59:28 PM 28.2803 -86.5953 111° Southeast 478 550 45,000 -200 Level Jacksonville Center
Fri 07:00:28 PM 28.2425 -86.4525 107° East 478 550 44,600 -400 Descending Jacksonville Center
Fri 07:01:28 PM 28.2258 -86.3011 97° East 483 556 44,200 -400 Descending Jacksonville Center
Fri 07:02:28 PM 28.2131 -86.1475 95° East 483 556 43,800 -403 Descending Jacksonville Center
Fri 07:03:27 PM 28.1997 -86.0106 96° East 491 565 43,400 -400 Descending Jacksonville Center
Fri 07:04:28 PM 28.1867 -85.8572 95° East 491 565 43,000 -198 Descending Jacksonville Center
Fri 07:05:28 PM 28.1714 -85.7083 97° East 484 557 43,000 -902 Level Jacksonville Center
Fri 07:07:21 PM 28.1461 -85.4025 95° East 486 559 40,400 -1,586 Descending Miami Center
Fri 07:08:22 PM 28.1314 -85.2483 96° East 492 566 38,400 -1,951 Descending Miami Center
Fri 07:09:24 PM 28.1183 -85.1025 96° East 476 548 36,400 -1,951 Descending Miami Center
Fri 07:10:25 PM 28.1033 -84.9542 97° East 472 543 34,400 -2,000 Descending Miami Center
Fri 07:11:27 PM 28.0889 -84.8019 96° East 484 557 32,300 -2,049 Descending Miami Center
Fri 07:12:28 PM 28.0728 -84.6483 97° East 488 562 30,200 -2,000 Descending Miami Center
Fri 07:13:30 PM 28.0578 -84.4969 96° East 489 563 28,200 -2,081 Descending Miami Center
Fri 07:14:32 PM 28.0397 -84.3322 97° East 464 534 25,900 -2,049 Descending Miami Center
Fri 07:15:33 PM 28.0253 -84.1922 97° East 452 520 24,000 -1,805 Descending Miami Center
Fri 07:16:35 PM 28.0114 -84.0569 97° East 437 503 22,200 -1,756 Descending Miami Center
Fri 07:17:36 PM 27.9981 -83.9264 97° East 422 486 20,400 -1,707 Descending Miami Center
Fri 07:18:38 PM 27.9858 -83.8006 96° East 407 468 18,700 -1,790 Descending Miami Center
Fri 07:19:40 PM 27.9686 -83.6525 97° East 398 458 16,700 -1,805 Descending Miami Center
Fri 07:20:41 PM 27.9564 -83.5339 97° East 383 441 15,000 -1,610 Descending Miami Center
Fri 07:21:43 PM 27.9436 -83.4150 97° East 382 440 13,400 -1,512 Descending Miami Center
Fri 07:22:44 PM 27.9306 -83.3064 98° East 355 409 11,900 -1,659 Descending Miami Center
Fri 07:23:46 PM 27.9208 -83.2103 97° East 313 360 10,000 -2,129 Descending Miami Center
Fri 07:24:48 PM 27.9117 -83.1175 96° East 307 353 7,500 -2,439 Descending Miami Center
Fri 07:25:49 PM 27.8944 -83.0306 103° East 294 338 5,000 -2,439 Descending Miami Center
Fri 07:26:51 PM 27.8725 -82.9517 107° East 278 320 2,500 -1,406 Descending Miami Center
Fri 07:27:57 PM 27.8667 -82.8667 94° East 203 234 2,000 -238 Descending Tampa TRACON
Fri 07:28:57 PM 27.8667 -82.8000 90° East 180 207 2,000  Level Tampa TRACON
Fri 07:29:57 PM 27.8500 -82.7500 111° Southeast 172 198 2,000 -250 Level Tampa TRACON
Fri 07:30:57 PM 27.8500 -82.7000 90° East 174 200 1,500 -850 Descending Tampa TRACON
Fri 07:31:57 PM 27.8833 -82.6833 24° Northeast 140 161 300 -1,200 Descending Tampa TRACON

Login

Don't have an account? Register now (free) for customized features, flight alerts, and more!